Time;durP1;ratioP1;P1;durP2;ratioP2;P2;SDS_P1;SDS_P2;PMS_P1;PMS_P2;Temp;Humidity;BMP_temperature;BMP_pressure;BME280_temperature;BME280_humidity;BME280_pressure;Samples;Min_cycle;Max_cycle;Signal;HPM_P1;HPM_P2
2022/01/19 00:02:00;;;;;;;;;;;4.20;99.90;;;;;;5059339;28;20008;-76
2022/01/19 00:04:27;;;;;;;;;;;4.20;99.90;;;;;;4967770;28;20449;-74
2022/01/19 00:06:53;;;;;;;;;;;4.10;99.90;;;;;;4977597;28;20433;-74
2022/01/19 00:09:20;;;;;;;;;;;4.10;99.90;;;;;;4982014;28;20350;-74
2022/01/19 00:11:47;;;;;;;;;;;4.20;99.90;;;;;;4982249;28;19936;-74
2022/01/19 00:14:13;;;;;;;;;;;4.10;99.90;;;;;;4985108;28;19933;-74
2022/01/19 00:16:40;;;;;;;;;;;4.20;99.90;;;;;;4982543;28;19933;-74
2022/01/19 00:19:07;;;;;;;;;;;4.20;99.90;;;;;;4983571;28;19925;-74
2022/01/19 00:21:33;;;;;;;;;;;4.20;99.90;;;;;;4977614;28;19932;-74
2022/01/19 00:24:00;;;;;;;;;;;4.30;99.90;;;;;;4969469;28;19926;-73
2022/01/19 00:26:32;;;;;;;;;;;4.30;99.90;;;;;;4976219;28;20523;-73
2022/01/19 00:28:59;;;;;;;;;;;4.30;99.90;;;;;;4984986;28;20007;-73
2022/01/19 00:31:26;;;;;;;;;;;4.30;99.90;;;;;;4977137;28;19926;-73
2022/01/19 00:33:53;;;;;;;;;;;4.30;99.90;;;;;;4972924;28;19940;-73
2022/01/19 00:36:19;;;;;;;;;;;4.20;99.90;;;;;;4980360;28;19948;-73
2022/01/19 00:38:46;;;;;;;;;;;4.20;99.90;;;;;;4975118;28;20281;-73
2022/01/19 00:41:12;;;;;;;;;;;4.20;99.90;;;;;;4980071;28;19933;-73
2022/01/19 00:43:39;;;;;;;;;;;4.30;99.90;;;;;;4974626;28;19948;-73
2022/01/19 00:46:06;;;;;;;;;;;4.30;99.90;;;;;;4979262;28;19932;-73
2022/01/19 00:48:33;;;;;;;;;;;4.30;99.90;;;;;;4978655;28;19946;-73
2022/01/19 00:51:00;;;;;;;;;;;4.30;99.90;;;;;;4980506;28;20304;-73
2022/01/19 00:53:27;;;;;;;;;;;4.20;99.90;;;;;;4974558;28;19926;-73
2022/01/19 00:55:56;;;;;;;;;;;4.30;99.90;;;;;;4982459;28;19929;-73
2022/01/19 00:58:23;;;;;;;;;;;4.30;99.90;;;;;;4978232;28;19926;-73
2022/01/19 01:00:50;;;;;;;;;;;4.30;99.90;;;;;;4978364;28;19929;-73
2022/01/19 01:03:17;;;;;;;;;;;4.30;99.90;;;;;;4977618;28;19949;-73
2022/01/19 01:05:44;;;;;;;;;;;4.20;99.90;;;;;;4985653;28;20046;-73
2022/01/19 01:08:11;;;;;;;;;;;4.20;99.90;;;;;;4984408;28;20465;-73
2022/01/19 01:10:42;;;;;;;;;;;4.20;99.90;;;;;;4972063;28;19932;-73
2022/01/19 01:13:29;;;;;;;;;;;4.20;99.90;;;;;;4983043;28;19929;-73
2022/01/19 01:16:05;;;;;;;;;;;4.20;99.90;;;;;;4982014;28;19926;-74
2022/01/19 01:18:32;;;;;;;;;;;4.20;99.90;;;;;;4986102;28;20342;-73
2022/01/19 01:20:59;;;;;;;;;;;4.20;99.90;;;;;;4986446;28;19926;-74
2022/01/19 01:23:27;;;;;;;;;;;4.20;99.90;;;;;;4951261;28;20477;-74
2022/01/19 01:25:54;;;;;;;;;;;4.10;99.90;;;;;;4984658;28;19926;-73
2022/01/19 01:28:21;;;;;;;;;;;4.00;99.90;;;;;;4979209;28;20385;-73
2022/01/19 01:30:48;;;;;;;;;;;4.00;99.90;;;;;;4987868;28;19926;-74
2022/01/19 01:33:15;;;;;;;;;;;4.00;99.90;;;;;;4985209;28;20523;-73
2022/01/19 01:35:41;;;;;;;;;;;4.00;99.90;;;;;;4974845;28;20149;-74
2022/01/19 01:38:08;;;;;;;;;;;4.00;99.90;;;;;;4953426;28;19926;-74
2022/01/19 01:40:47;;;;;;;;;;;4.00;99.90;;;;;;4974906;28;20264;-74
2022/01/19 01:43:14;;;;;;;;;;;4.00;99.90;;;;;;4980516;28;19930;-73
2022/01/19 01:45:42;;;;;;;;;;;3.90;99.90;;;;;;4985856;28;19939;-74
2022/01/19 01:53:26;;;;;;;;;;;3.90;99.90;;;;;;4979210;28;19928;-74
2022/01/19 01:56:07;;;;;;;;;;;3.90;99.90;;;;;;4986071;28;19922;-73
2022/01/19 01:58:40;;;;;;;;;;;4.00;99.90;;;;;;4975833;28;19922;-73
2022/01/19 02:01:08;;;;;;;;;;;4.00;99.90;;;;;;5020645;28;19920;-73
2022/01/19 02:03:39;;;;;;;;;;;4.00;99.90;;;;;;4991858;28;19967;-73
2022/01/19 02:09:15;;;;;;;;;;;3.90;99.90;;;;;;4987105;28;19922;-73
2022/01/19 02:22:52;;;;;;;;;;;3.80;99.90;;;;;;4982877;28;19922;-74
2022/01/19 02:25:26;;;;;;;;;;;3.80;99.90;;;;;;4975078;28;19922;-73
2022/01/19 02:31:47;;;;;;;;;;;3.80;99.90;;;;;;4982136;28;19925;-73
2022/01/19 02:41:43;;;;;;;;;;;3.80;99.90;;;;;;4973818;28;19944;-73
2022/01/19 02:44:12;;;;;;;;;;;3.80;99.90;;;;;;4987712;28;20141;-73
2022/01/19 02:49:09;;;;;;;;;;;3.80;99.90;;;;;;4975601;28;19929;-73
2022/01/19 02:49:28;;;;;;;;;;;3.80;99.90;;;;;;4982934;28;20106;-73
2022/01/19 02:51:54;;;;;;;;;;;3.80;99.90;;;;;;4966819;28;20396;-74
2022/01/19 02:54:22;;;;;;;;;;;3.80;99.90;;;;;;4975186;28;19928;-73
2022/01/19 02:56:55;;;;;;;;;;;3.80;99.90;;;;;;4978044;28;19925;-73
2022/01/19 03:06:16;;;;;;;;;;;3.80;99.90;;;;;;4987199;28;19922;-73
2022/01/19 03:10:25;;;;;;;;;;;3.80;99.90;;;;;;4975604;28;19932;-73
2022/01/19 03:12:51;;;;;;;;;;;3.70;99.90;;;;;;4987932;28;19955;-73
2022/01/19 03:15:18;;;;;;;;;;;3.70;99.90;;;;;;4983502;28;19928;-73
2022/01/19 03:17:45;;;;;;;;;;;3.80;99.90;;;;;;4973167;28;19932;-73
2022/01/19 03:20:12;;;;;;;;;;;3.70;99.90;;;;;;4976562;28;19944;-73
2022/01/19 03:23:39;;;;;;;;;;;3.70;99.90;;;;;;4981762;28;19933;-73
2022/01/19 03:25:38;;;;;;;;;;;3.70;99.90;;;;;;4971175;28;19955;-73
2022/01/19 03:28:05;;;;;;;;;;;3.70;99.90;;;;;;4972698;28;19941;-73
2022/01/19 03:30:33;;;;;;;;;;;3.70;99.90;;;;;;4973341;28;19948;-73
2022/01/19 03:32:59;;;;;;;;;;;3.70;99.90;;;;;;4977919;28;19930;-73
2022/01/19 03:35:26;;;;;;;;;;;3.70;99.90;;;;;;4976395;28;20256;-73
2022/01/19 03:37:53;;;;;;;;;;;3.70;99.90;;;;;;4979457;28;19956;-73
2022/01/19 03:40:22;;;;;;;;;;;3.70;99.90;;;;;;4969099;28;19922;-73
2022/01/19 03:42:49;;;;;;;;;;;3.70;99.90;;;;;;4982048;28;20294;-73
2022/01/19 03:45:16;;;;;;;;;;;3.60;99.90;;;;;;4983053;28;19940;-73
2022/01/19 03:47:48;;;;;;;;;;;3.70;99.90;;;;;;4985403;28;19922;-73
2022/01/19 03:50:15;;;;;;;;;;;3.60;99.90;;;;;;4977729;28;19925;-73
2022/01/19 03:52:41;;;;;;;;;;;3.50;99.90;;;;;;4978608;28;19921;-73
2022/01/19 03:55:08;;;;;;;;;;;3.30;99.90;;;;;;4981741;28;19922;-73
2022/01/19 03:57:35;;;;;;;;;;;3.10;99.90;;;;;;4968360;28;19930;-73
2022/01/19 04:00:03;;;;;;;;;;;2.90;99.90;;;;;;4972548;28;19922;-73
2022/01/19 04:02:30;;;;;;;;;;;2.70;99.90;;;;;;4981034;28;20564;-73
2022/01/19 04:05:06;;;;;;;;;;;2.40;99.90;;;;;;4980776;28;19925;-73
2022/01/19 04:07:33;;;;;;;;;;;2.30;99.90;;;;;;4980096;28;19922;-73
2022/01/19 04:10:00;;;;;;;;;;;2.20;99.90;;;;;;4981567;28;20255;-73
2022/01/19 04:12:52;;;;;;;;;;;2.10;99.90;;;;;;4968762;28;19930;-73
2022/01/19 04:15:16;;;;;;;;;;;2.00;99.90;;;;;;4945620;28;19922;-73
2022/01/19 04:17:51;;;;;;;;;;;1.90;99.90;;;;;;4977367;28;19922;-73
2022/01/19 04:20:18;;;;;;;;;;;1.80;99.90;;;;;;4975327;28;20343;-73
2022/01/19 04:22:45;;;;;;;;;;;1.60;99.90;;;;;;4970316;28;20399;-73
2022/01/19 04:25:12;;;;;;;;;;;1.50;99.90;;;;;;4982593;28;20296;-73
2022/01/19 04:27:42;;;;;;;;;;;1.40;99.90;;;;;;4975231;28;20328;-73
2022/01/19 04:30:11;;;;;;;;;;;1.40;99.90;;;;;;4979033;28;19922;-73
2022/01/19 04:35:15;;;;;;;;;;;1.40;99.90;;;;;;4991414;28;19922;-73
2022/01/19 04:46:03;;;;;;;;;;;1.00;99.90;;;;;;4986912;28;19933;-73
2022/01/19 05:04:47;;;;;;;;;;;0.30;99.90;;;;;;5044266;28;20508;-73
2022/01/19 05:15:05;;;;;;;;;;;0.00;99.90;;;;;;4979503;28;20279;-73
2022/01/19 05:17:37;;;;;;;;;;;-0.20;99.90;;;;;;4976216;28;19932;-73
2022/01/19 05:20:04;;;;;;;;;;;-0.30;99.90;;;;;;4980498;28;20024;-73
2022/01/19 05:22:31;;;;;;;;;;;-0.50;99.90;;;;;;4972513;28;20503;-73
2022/01/19 05:24:58;;;;;;;;;;;-0.60;99.90;;;;;;4982486;28;19922;-73
2022/01/19 05:27:24;;;;;;;;;;;-0.70;99.90;;;;;;4965176;28;20401;-73
2022/01/19 05:29:51;;;;;;;;;;;-0.60;99.90;;;;;;4976675;28;19928;-73
2022/01/19 05:32:18;;;;;;;;;;;-0.70;99.90;;;;;;4985392;28;20037;-73
2022/01/19 05:34:44;;;;;;;;;;;-0.80;99.90;;;;;;4983255;28;20132;-73
2022/01/19 05:37:11;;;;;;;;;;;-0.90;99.90;;;;;;4946549;28;19936;-73
2022/01/19 05:39:37;;;;;;;;;;;-1.00;99.90;;;;;;4979352;28;19929;-73
2022/01/19 05:42:04;;;;;;;;;;;-1.20;99.90;;;;;;4975437;28;20392;-73
2022/01/19 05:44:31;;;;;;;;;;;-1.20;99.90;;;;;;4966358;28;19926;-73
2022/01/19 05:46:57;;;;;;;;;;;-1.30;99.90;;;;;;4962205;28;19952;-73
2022/01/19 05:49:24;;;;;;;;;;;-1.30;99.90;;;;;;4963035;28;20266;-73
2022/01/19 05:51:51;;;;;;;;;;;-1.30;99.90;;;;;;4967339;28;19930;-73
2022/01/19 05:54:20;;;;;;;;;;;-1.40;99.90;;;;;;4971267;28;20505;-73
2022/01/19 05:56:46;;;;;;;;;;;-1.40;99.90;;;;;;4961779;28;19936;-73
2022/01/19 05:59:13;;;;;;;;;;;-1.40;99.90;;;;;;4960526;28;19925;-73
2022/01/19 06:01:40;;;;;;;;;;;-1.50;99.90;;;;;;4970435;28;19922;-73
2022/01/19 06:04:07;;;;;;;;;;;-1.60;99.90;;;;;;4961564;28;19929;-73
2022/01/19 06:06:34;;;;;;;;;;;-1.60;99.90;;;;;;4988907;28;19928;-73
2022/01/19 06:09:08;;;;;;;;;;;-1.60;99.90;;;;;;4984506;28;19926;-73
2022/01/19 06:11:35;;;;;;;;;;;-1.50;99.90;;;;;;4998786;28;19932;-73
2022/01/19 06:14:01;;;;;;;;;;;-1.30;99.90;;;;;;5014602;28;19926;-73
2022/01/19 06:16:28;;;;;;;;;;;-1.20;99.90;;;;;;4982298;28;19922;-73
2022/01/19 06:18:55;;;;;;;;;;;-1.10;99.90;;;;;;4990405;28;20020;-73
2022/01/19 06:21:21;;;;;;;;;;;-1.10;99.90;;;;;;4974535;28;19922;-73
2022/01/19 06:23:48;;;;;;;;;;;-1.00;99.90;;;;;;4983976;28;19928;-73
2022/01/19 06:26:15;;;;;;;;;;;-1.00;99.90;;;;;;4976568;28;19925;-73
2022/01/19 06:28:41;;;;;;;;;;;-1.00;99.90;;;;;;4982608;28;19926;-73
2022/01/19 06:31:09;;;;;;;;;;;-1.10;99.90;;;;;;4981667;28;19951;-73
2022/01/19 06:33:36;;;;;;;;;;;-1.00;99.90;;;;;;4976919;28;19995;-73
2022/01/19 06:36:02;;;;;;;;;;;-0.90;99.90;;;;;;4950792;28;20395;-71
2022/01/19 06:38:29;;;;;;;;;;;-1.00;99.90;;;;;;4976551;28;19934;-72
2022/01/19 06:40:56;;;;;;;;;;;-1.00;99.90;;;;;;4986562;28;20123;-73
2022/01/19 06:43:23;;;;;;;;;;;-0.90;99.90;;;;;;4967385;28;19926;-72
2022/01/19 06:45:49;;;;;;;;;;;-1.00;99.90;;;;;;4964443;28;19963;-72
2022/01/19 06:48:16;;;;;;;;;;;-1.10;99.90;;;;;;4960772;28;19926;-73
2022/01/19 06:50:43;;;;;;;;;;;-1.20;99.90;;;;;;4968972;28;20319;-73
2022/01/19 06:53:14;;;;;;;;;;;-1.40;99.90;;;;;;4981093;28;20373;-72
2022/01/19 06:55:41;;;;;;;;;;;-1.60;99.90;;;;;;4981356;28;19922;-73
2022/01/19 06:58:07;;;;;;;;;;;-1.70;99.90;;;;;;4979746;28;19929;-73
2022/01/19 07:00:34;;;;;;;;;;;-1.70;99.90;;;;;;4975462;28;19921;-73
2022/01/19 07:03:01;;;;;;;;;;;-1.70;99.90;;;;;;4979404;28;19970;-73
2022/01/19 07:05:28;;;;;;;;;;;-1.80;99.90;;;;;;4977514;28;19922;-73
2022/01/19 07:07:57;;;;;;;;;;;-1.80;99.90;;;;;;4979460;28;19922;-73
2022/01/19 07:10:24;;;;;;;;;;;-1.90;99.90;;;;;;4972881;28;19925;-73
2022/01/19 07:12:50;;;;;;;;;;;-2.00;99.90;;;;;;4979033;28;19926;-73
2022/01/19 07:15:17;;;;;;;;;;;-2.00;99.90;;;;;;4979263;28;20388;-73
2022/01/19 07:17:44;;;;;;;;;;;-2.00;99.90;;;;;;4975574;28;19922;-73
2022/01/19 07:20:10;;;;;;;;;;;-2.00;99.90;;;;;;4972498;28;19937;-73
2022/01/19 07:22:37;;;;;;;;;;;-2.10;99.90;;;;;;4943860;28;19929;-73
2022/01/19 07:25:04;;;;;;;;;;;-2.10;99.90;;;;;;4981151;28;20372;-73
2022/01/19 07:27:30;;;;;;;;;;;-2.20;99.90;;;;;;4971448;28;19930;-72
2022/01/19 07:29:57;;;;;;;;;;;-2.10;99.90;;;;;;4963665;28;19926;-72
2022/01/19 07:32:29;;;;;;;;;;;-1.90;99.90;;;;;;4960454;28;19926;-72
2022/01/19 07:34:55;;;;;;;;;;;-1.90;99.90;;;;;;4960442;28;20436;-72
2022/01/19 07:37:22;;;;;;;;;;;-1.80;99.90;;;;;;4972499;28;20388;-72
2022/01/19 07:39:49;;;;;;;;;;;-1.80;99.90;;;;;;4961115;28;19933;-72
2022/01/19 07:42:15;;;;;;;;;;;-1.80;99.90;;;;;;4968066;28;19926;-73
2022/01/19 07:44:42;;;;;;;;;;;-1.90;99.90;;;;;;4958079;28;19925;-73
2022/01/19 07:47:09;;;;;;;;;;;-1.90;99.90;;;;;;4963770;28;19932;-72
2022/01/19 07:49:35;;;;;;;;;;;-1.90;99.90;;;;;;4970917;28;19932;-72
2022/01/19 07:52:02;;;;;;;;;;;-1.80;99.90;;;;;;4973993;28;19932;-73
2022/01/19 07:54:29;;;;;;;;;;;-1.70;99.90;;;;;;4977565;28;20036;-72
2022/01/19 07:56:55;;;;;;;;;;;-1.60;99.90;;;;;;4981587;28;19936;-73
2022/01/19 07:59:22;;;;;;;;;;;-1.40;99.90;;;;;;4971976;28;19922;-73
2022/01/19 08:01:49;;;;;;;;;;;-1.10;99.90;;;;;;4971350;28;19922;-73
2022/01/19 08:04:16;;;;;;;;;;;-0.80;99.90;;;;;;4975113;28;19930;-73
2022/01/19 08:06:42;;;;;;;;;;;-0.70;99.90;;;;;;4974055;28;19921;-74
2022/01/19 08:09:09;;;;;;;;;;;-0.50;99.90;;;;;;4980499;28;19922;-74
2022/01/19 08:11:36;;;;;;;;;;;-0.20;99.90;;;;;;4976230;28;20304;-74
2022/01/19 08:14:07;;;;;;;;;;;0.20;99.90;;;;;;4975649;28;19939;-74
2022/01/19 08:16:33;;;;;;;;;;;0.40;99.90;;;;;;4980937;28;19928;-73
2022/01/19 08:19:00;;;;;;;;;;;0.50;99.90;;;;;;4976525;28;20591;-74
2022/01/19 08:21:32;;;;;;;;;;;0.80;99.90;;;;;;4946051;28;19922;-74
2022/01/19 08:23:58;;;;;;;;;;;1.10;99.90;;;;;;4975962;28;19926;-72
2022/01/19 08:26:25;;;;;;;;;;;1.40;99.90;;;;;;4979919;28;19941;-72
2022/01/19 08:28:52;;;;;;;;;;;1.80;99.90;;;;;;4979230;28;19964;-73
2022/01/19 08:31:18;;;;;;;;;;;1.90;99.90;;;;;;4973381;28;19930;-73
2022/01/19 08:33:47;;;;;;;;;;;2.00;99.90;;;;;;4976332;28;21275;-72
2022/01/19 08:36:14;;;;;;;;;;;2.40;99.90;;;;;;4982843;28;19965;-73
2022/01/19 08:38:42;;;;;;;;;;;2.80;99.90;;;;;;4976145;28;19934;-73
2022/01/19 08:41:09;;;;;;;;;;;3.20;99.90;;;;;;4978332;28;20020;-73
2022/01/19 08:43:36;;;;;;;;;;;3.30;99.90;;;;;;4974481;28;19930;-73
2022/01/19 08:46:03;;;;;;;;;;;3.40;99.90;;;;;;4982839;28;19949;-73
2022/01/19 08:48:29;;;;;;;;;;;3.30;99.90;;;;;;4971070;28;19936;-73
2022/01/19 08:50:56;;;;;;;;;;;3.30;99.90;;;;;;4991217;28;20008;-73
2022/01/19 08:53:24;;;;;;;;;;;3.40;99.90;;;;;;4980103;28;19926;-73
2022/01/19 08:55:55;;;;;;;;;;;3.40;99.90;;;;;;4971668;28;19930;-73
2022/01/19 08:58:22;;;;;;;;;;;3.40;99.90;;;;;;4974210;28;20502;-73
2022/01/19 09:00:49;;;;;;;;;;;3.30;99.90;;;;;;4982190;28;19925;-73
2022/01/19 09:03:16;;;;;;;;;;;3.20;99.90;;;;;;4983566;28;19936;-72
2022/01/19 09:05:44;;;;;;;;;;;3.10;99.90;;;;;;4983180;28;20383;-72
2022/01/19 09:08:11;;;;;;;;;;;3.40;99.90;;;;;;4981185;28;19933;-72
2022/01/19 09:10:40;;;;;;;;;;;3.70;99.90;;;;;;4984126;28;20157;-72
2022/01/19 09:13:07;;;;;;;;;;;4.00;99.90;;;;;;4981516;28;19940;-72
2022/01/19 09:15:35;;;;;;;;;;;4.20;99.90;;;;;;4984634;28;20013;-73
2022/01/19 09:18:01;;;;;;;;;;;4.40;99.90;;;;;;4980491;28;19922;-73
2022/01/19 09:20:28;;;;;;;;;;;4.30;99.90;;;;;;4988666;28;19928;-73
2022/01/19 09:22:54;;;;;;;;;;;4.10;99.90;;;;;;4981505;28;19921;-73
2022/01/19 09:25:21;;;;;;;;;;;4.00;99.90;;;;;;4973443;28;19928;-73
2022/01/19 09:27:48;;;;;;;;;;;4.10;99.90;;;;;;4983745;28;19932;-73
2022/01/19 09:30:17;;;;;;;;;;;4.20;99.90;;;;;;4980154;28;19922;-73
2022/01/19 09:32:49;;;;;;;;;;;4.10;99.90;;;;;;4977548;28;19921;-73
2022/01/19 09:35:23;;;;;;;;;;;4.00;99.90;;;;;;4981160;28;19928;-73
2022/01/19 09:37:50;;;;;;;;;;;4.10;99.90;;;;;;4978443;28;19936;-73
2022/01/19 09:40:28;;;;;;;;;;;4.00;99.90;;;;;;4990306;28;20304;-73
2022/01/19 09:43:05;;;;;;;;;;;4.00;99.90;;;;;;4984732;28;19921;-73
2022/01/19 09:45:31;;;;;;;;;;;4.10;99.90;;;;;;4982878;28;19964;-74
2022/01/19 09:47:58;;;;;;;;;;;4.30;99.90;;;;;;4984093;28;20384;-73
2022/01/19 09:50:25;;;;;;;;;;;4.40;99.90;;;;;;4968813;28;19940;-73
2022/01/19 09:52:52;;;;;;;;;;;4.80;99.90;;;;;;4976568;28;19949;-73
2022/01/19 09:55:19;;;;;;;;;;;5.00;99.90;;;;;;4972066;28;19922;-74
2022/01/19 09:57:45;;;;;;;;;;;5.30;99.90;;;;;;4988095;28;19922;-73
2022/01/19 10:00:13;;;;;;;;;;;5.30;99.90;;;;;;4974070;28;19922;-73
2022/01/19 10:02:39;;;;;;;;;;;5.30;99.90;;;;;;4981180;28;19922;-73
2022/01/19 10:05:07;;;;;;;;;;;5.20;99.90;;;;;;4987740;28;19932;-73
2022/01/19 10:07:34;;;;;;;;;;;4.70;99.90;;;;;;4983299;28;20300;-73
2022/01/19 10:10:05;;;;;;;;;;;4.40;99.90;;;;;;4978126;28;19922;-73
2022/01/19 10:18:19;;;;;;;;;;;3.50;99.90;;;;;;4977412;28;19922;-73
2022/01/19 10:20:48;;;;;;;;;;;3.30;99.90;;;;;;4978920;28;19930;-73
2022/01/19 10:23:35;;;;;;;;;;;3.10;99.90;;;;;;4979621;28;19925;-73
2022/01/19 10:26:07;;;;;;;;;;;3.10;99.90;;;;;;4975711;28;19930;-73
2022/01/19 10:28:52;;;;;;;;;;;3.10;99.90;;;;;;4973243;28;19928;-73
2022/01/19 10:31:18;;;;;;;;;;;3.10;99.90;;;;;;4975952;28;19971;-73
2022/01/19 10:34:05;;;;;;;;;;;3.00;99.90;;;;;;4981650;28;19932;-73
2022/01/19 10:36:39;;;;;;;;;;;2.90;99.90;;;;;;4978687;28;19926;-73
2022/01/19 10:39:06;;;;;;;;;;;3.00;99.90;;;;;;4982134;28;20300;-73
2022/01/19 10:41:32;;;;;;;;;;;3.00;99.90;;;;;;4974449;28;19922;-73
2022/01/19 10:43:59;;;;;;;;;;;3.10;99.90;;;;;;4979079;28;19921;-73
2022/01/19 10:46:30;;;;;;;;;;;3.20;99.90;;;;;;4980347;28;20332;-73
2022/01/19 10:48:56;;;;;;;;;;;3.40;99.90;;;;;;4987304;28;19926;-73
2022/01/19 10:51:23;;;;;;;;;;;3.30;99.90;;;;;;4982810;28;20012;-73
2022/01/19 10:54:27;;;;;;;;;;;3.40;99.90;;;;;;4986610;28;19922;-73
2022/01/19 10:56:57;;;;;;;;;;;3.40;99.90;;;;;;5059894;28;19925;-73
2022/01/19 10:59:29;;;;;;;;;;;3.40;99.90;;;;;;5057474;28;20326;-73
2022/01/19 11:02:00;;;;;;;;;;;3.50;99.90;;;;;;5057555;28;20379;-73
2022/01/19 11:04:29;;;;;;;;;;;3.40;99.90;;;;;;5064994;28;20302;-73
2022/01/19 11:06:56;;;;;;;;;;;3.20;99.90;;;;;;5063911;28;19978;-73
2022/01/19 11:09:25;;;;;;;;;;;3.20;99.90;;;;;;5065199;28;20505;-73
2022/01/19 11:11:53;;;;;;;;;;;3.10;99.90;;;;;;5059776;28;20640;-73
2022/01/19 11:14:22;;;;;;;;;;;3.10;99.90;;;;;;5061411;28;19920;-73
2022/01/19 11:16:51;;;;;;;;;;;3.20;99.90;;;;;;5059434;28;19943;-73
2022/01/19 11:19:19;;;;;;;;;;;3.20;99.90;;;;;;5064323;28;20045;-73
2022/01/19 11:22:04;;;;;;;;;;;3.20;99.90;;;;;;5058222;28;25067;-73
2022/01/19 11:24:32;;;;;;;;;;;3.20;99.90;;;;;;5056009;28;19955;-73
2022/01/19 11:26:59;;;;;;;;;;;3.30;99.90;;;;;;5054893;28;20338;-73
2022/01/19 11:29:26;;;;;;;;;;;3.30;99.90;;;;;;5042306;28;19931;-73
2022/01/19 11:31:54;;;;;;;;;;;3.20;99.90;;;;;;5004361;28;19929;-73
2022/01/19 11:34:42;;;;;;;;;;;3.20;99.90;;;;;;4977812;28;20296;-73
2022/01/19 11:37:09;;;;;;;;;;;3.20;99.90;;;;;;4977406;28;19928;-73
2022/01/19 11:39:36;;;;;;;;;;;3.20;99.90;;;;;;4979051;28;19933;-73
2022/01/19 11:42:06;;;;;;;;;;;3.20;99.90;;;;;;4979842;28;19926;-73
2022/01/19 11:44:33;;;;;;;;;;;3.30;99.90;;;;;;4983693;28;20431;-73
2022/01/19 11:47:04;;;;;;;;;;;3.20;99.90;;;;;;4983629;28;19922;-73
2022/01/19 11:49:51;;;;;;;;;;;3.20;99.90;;;;;;4979040;28;19926;-73
2022/01/19 11:52:19;;;;;;;;;;;3.20;99.90;;;;;;4975663;28;19948;-73
2022/01/19 11:54:48;;;;;;;;;;;3.10;99.90;;;;;;4974808;28;19929;-73
2022/01/19 11:57:26;;;;;;;;;;;3.20;99.90;;;;;;4975376;28;19921;-74
2022/01/19 11:59:52;;;;;;;;;;;3.20;99.90;;;;;;5012968;28;20021;-74
2022/01/19 12:02:26;;;;;;;;;;;3.10;99.90;;;;;;4981644;28;19932;-75
2022/01/19 12:05:36;;;;;;;;;;;3.00;99.90;;;;;;4934356;28;19937;-73
2022/01/19 12:08:19;;;;;;;;;;;2.90;99.90;;;;;;4980544;28;20273;-72
2022/01/19 12:10:48;;;;;;;;;;;2.90;99.90;;;;;;4974537;28;19926;-72
2022/01/19 12:16:19;;;;;;;;;;;2.90;99.90;;;;;;4977852;28;19922;-73
2022/01/19 12:18:46;;;;;;;;;;;2.90;99.90;;;;;;4978471;28;19922;-73
2022/01/19 12:21:34;;;;;;;;;;;2.70;99.90;;;;;;4972225;28;19925;-73
2022/01/19 12:24:28;;;;;;;;;;;2.70;99.90;;;;;;4967327;28;20327;-72
2022/01/19 12:26:55;;;;;;;;;;;2.80;99.90;;;;;;4968934;28;19926;-73
2022/01/19 12:29:34;;;;;;;;;;;2.80;99.90;;;;;;4980971;28;19967;-73
2022/01/19 12:32:02;;;;;;;;;;;2.80;99.90;;;;;;4978071;28;19923;-73
2022/01/19 12:34:57;;;;;;;;;;;2.80;99.90;;;;;;4975104;28;19936;-74
2022/01/19 12:37:24;;;;;;;;;;;2.90;99.90;;;;;;4943606;28;19926;-74
2022/01/19 12:39:51;;;;;;;;;;;3.00;99.90;;;;;;4968607;28;20052;-74
2022/01/19 12:42:26;;;;;;;;;;;3.00;99.90;;;;;;4968597;28;20167;-73
2022/01/19 12:44:54;;;;;;;;;;;2.90;99.90;;;;;;4968544;28;20292;-74
2022/01/19 12:47:27;;;;;;;;;;;2.80;99.90;;;;;;4958486;28;20023;-73
2022/01/19 12:49:57;;;;;;;;;;;2.70;99.90;;;;;;5012320;28;19932;-74
2022/01/19 12:52:25;;;;;;;;;;;2.70;99.90;;;;;;4968514;28;19921;-74
2022/01/19 12:54:53;;;;;;;;;;;2.70;99.90;;;;;;4981163;28;20010;-74
2022/01/19 12:57:20;;;;;;;;;;;2.80;99.90;;;;;;4963887;28;19944;-75
2022/01/19 12:59:48;;;;;;;;;;;2.80;99.90;;;;;;4972322;28;19922;-74
2022/01/19 13:02:16;;;;;;;;;;;2.80;99.90;;;;;;4959665;28;19949;-74
2022/01/19 13:04:46;;;;;;;;;;;2.70;99.90;;;;;;4978088;28;20299;-74
2022/01/19 13:07:16;;;;;;;;;;;2.80;99.90;;;;;;4971418;28;20024;-75
2022/01/19 13:10:04;;;;;;;;;;;2.80;99.90;;;;;;4979351;28;20050;-75
2022/01/19 13:12:44;;;;;;;;;;;2.80;99.90;;;;;;4979603;28;20443;-75
2022/01/19 13:15:11;;;;;;;;;;;2.80;99.90;;;;;;4974154;28;20020;-75
2022/01/19 13:17:42;;;;;;;;;;;2.70;99.90;;;;;;4976139;28;19953;-73
2022/01/19 13:20:10;;;;;;;;;;;2.70;99.90;;;;;;4967836;28;20392;-74
2022/01/19 13:23:06;;;;;;;;;;;2.70;99.90;;;;;;4977394;28;20047;-74
2022/01/19 13:25:33;;;;;;;;;;;2.60;99.90;;;;;;4972245;28;20715;-74
2022/01/19 13:28:01;;;;;;;;;;;2.50;99.90;;;;;;4979996;28;20427;-74
2022/01/19 13:30:29;;;;;;;;;;;2.50;99.90;;;;;;4993630;28;19948;-74
2022/01/19 13:32:56;;;;;;;;;;;2.50;99.90;;;;;;4973816;28;19925;-75
2022/01/19 13:35:23;;;;;;;;;;;2.50;99.90;;;;;;4963439;28;19936;-75
2022/01/19 13:37:55;;;;;;;;;;;2.40;99.90;;;;;;4977161;28;19930;-75
2022/01/19 13:40:23;;;;;;;;;;;2.40;99.90;;;;;;4968245;28;19926;-75
2022/01/19 13:42:52;;;;;;;;;;;2.40;99.90;;;;;;4974511;28;20155;-75
2022/01/19 13:45:25;;;;;;;;;;;2.30;99.90;;;;;;4972127;28;19930;-74
2022/01/19 13:47:56;;;;;;;;;;;2.20;99.90;;;;;;4975391;28;19929;-74
2022/01/19 13:50:23;;;;;;;;;;;2.20;99.90;;;;;;4972412;28;20012;-74
2022/01/19 13:52:50;;;;;;;;;;;2.20;99.90;;;;;;4987686;28;20016;-74
2022/01/19 13:55:20;;;;;;;;;;;2.20;99.90;;;;;;4981161;28;19921;-74
2022/01/19 13:57:47;;;;;;;;;;;2.20;99.90;;;;;;4973288;28;19926;-74
2022/01/19 14:00:16;;;;;;;;;;;2.20;99.90;;;;;;4967614;28;20021;-74
2022/01/19 14:02:52;;;;;;;;;;;2.10;99.90;;;;;;4971988;28;19926;-74
2022/01/19 14:05:34;;;;;;;;;;;2.20;99.90;;;;;;4988679;28;20386;-74
2022/01/19 14:08:01;;;;;;;;;;;2.10;99.90;;;;;;4989264;28;20236;-74
2022/01/19 14:10:37;;;;;;;;;;;2.10;99.90;;;;;;4979295;28;19922;-74
2022/01/19 14:13:23;;;;;;;;;;;2.10;99.90;;;;;;4969867;28;19926;-74
2022/01/19 14:15:49;;;;;;;;;;;2.10;99.90;;;;;;4979739;28;19943;-74
2022/01/19 14:18:17;;;;;;;;;;;2.10;99.90;;;;;;4978571;28;19922;-73
2022/01/19 14:20:43;;;;;;;;;;;2.00;99.90;;;;;;4982614;28;19922;-74
2022/01/19 14:23:15;;;;;;;;;;;2.00;99.90;;;;;;4958440;28;19926;-74
2022/01/19 14:25:43;;;;;;;;;;;2.00;99.90;;;;;;4978939;28;19928;-74
2022/01/19 14:28:14;;;;;;;;;;;2.00;99.90;;;;;;4970744;28;19925;-74
2022/01/19 14:30:42;;;;;;;;;;;2.00;99.90;;;;;;4978146;28;20374;-74
2022/01/19 14:33:28;;;;;;;;;;;2.00;99.90;;;;;;4978490;28;19926;-74
2022/01/19 14:35:57;;;;;;;;;;;2.00;99.90;;;;;;4971925;28;20013;-74
2022/01/19 14:38:26;;;;;;;;;;;2.00;99.90;;;;;;4977456;28;20274;-74
2022/01/19 14:40:59;;;;;;;;;;;2.00;99.90;;;;;;4953299;28;19929;-75
2022/01/19 14:43:40;;;;;;;;;;;1.90;99.90;;;;;;4976348;28;20376;-75
2022/01/19 14:46:11;;;;;;;;;;;1.90;99.90;;;;;;4982130;28;19929;-75
2022/01/19 14:48:40;;;;;;;;;;;1.90;99.90;;;;;;4970325;28;19940;-75
2022/01/19 14:51:19;;;;;;;;;;;1.90;99.90;;;;;;4964821;28;19922;-75
2022/01/19 14:53:46;;;;;;;;;;;1.90;99.90;;;;;;4964182;28;19940;-75
2022/01/19 14:56:13;;;;;;;;;;;1.90;99.90;;;;;;4969898;28;20100;-75
2022/01/19 14:58:40;;;;;;;;;;;1.90;99.90;;;;;;4982522;28;19932;-74
2022/01/19 15:01:07;;;;;;;;;;;1.90;99.90;;;;;;4967387;28;20547;-75
2022/01/19 15:03:34;;;;;;;;;;;1.90;99.90;;;;;;4971637;28;19926;-75
2022/01/19 15:06:01;;;;;;;;;;;1.90;99.90;;;;;;4969038;28;19925;-75
2022/01/19 15:08:28;;;;;;;;;;;1.80;99.90;;;;;;4968596;28;19925;-76
2022/01/19 15:10:55;;;;;;;;;;;1.90;99.90;;;;;;4970976;28;19926;-76
2022/01/19 15:13:22;;;;;;;;;;;1.90;99.90;;;;;;4966857;28;20130;-75
2022/01/19 15:15:48;;;;;;;;;;;1.90;99.90;;;;;;4974959;28;19926;-76
2022/01/19 15:18:15;;;;;;;;;;;1.80;99.90;;;;;;4967412;28;19925;-76
2022/01/19 15:20:42;;;;;;;;;;;1.90;99.90;;;;;;4968381;28;20571;-76
2022/01/19 15:23:09;;;;;;;;;;;1.80;99.90;;;;;;4975354;28;20021;-76
2022/01/19 15:25:37;;;;;;;;;;;1.90;99.90;;;;;;4991748;28;19929;-75
2022/01/19 15:28:05;;;;;;;;;;;1.90;99.90;;;;;;4971285;28;19948;-76
2022/01/19 15:30:32;;;;;;;;;;;1.90;99.90;;;;;;4970410;28;19929;-76
2022/01/19 15:32:59;;;;;;;;;;;1.80;99.90;;;;;;4972673;28;19937;-75
2022/01/19 15:35:25;;;;;;;;;;;1.90;99.90;;;;;;4968149;28;19922;-76
2022/01/19 15:37:53;;;;;;;;;;;1.90;99.90;;;;;;4970120;28;19944;-76
2022/01/19 15:40:21;;;;;;;;;;;1.90;99.90;;;;;;4967357;28;19922;-77
2022/01/19 15:43:00;;;;;;;;;;;1.90;99.90;;;;;;4983196;28;20408;-76
2022/01/19 15:45:29;;;;;;;;;;;1.90;99.90;;;;;;4973085;28;19965;-75
2022/01/19 15:47:57;;;;;;;;;;;1.90;99.90;;;;;;4968554;28;19936;-75
2022/01/19 15:50:25;;;;;;;;;;;1.90;99.90;;;;;;4972767;28;19928;-75
2022/01/19 15:52:51;;;;;;;;;;;1.90;99.90;;;;;;4971506;28;19922;-75
2022/01/19 15:55:18;;;;;;;;;;;2.00;99.90;;;;;;4967090;28;19925;-75
2022/01/19 15:58:05;;;;;;;;;;;1.90;99.90;;;;;;4968805;28;19944;-75
2022/01/19 16:00:32;;;;;;;;;;;2.00;99.90;;;;;;4972067;28;19928;-75
2022/01/19 16:02:59;;;;;;;;;;;1.90;99.90;;;;;;4970127;28;19935;-74
2022/01/19 16:05:26;;;;;;;;;;;2.00;99.90;;;;;;4976768;28;19933;-74